Maple Ridge, SC

5:17 PM EDT on March 27, 2017 (GMT -0400)
Goose Creek, SC US | | Change Station

Elev 39 ft 32.99 °N, 80.03 °W | Updated 1 second ago

Partly Cloudy
Partly Cloudy
77.5 °F
Feels Like 79 °F
N
5.5
Wind Variable Wind from SW
Gusts 5.5 mph

Today
High -- | Low -- °F
--% Chance of Precip.
Yesterday
High -- | Low -- °F
Precip. -- in
Pressure 30.03 in
Visibility 10.0 miles
Clouds Few 4500 ft
Scattered Clouds 25000 ft
Heat Index 79 °F
Dew Point 58 °F
Humidity 51%
Rainfall 0.00 in
Snow Depth Not available.
7:14 AM 7:36 PM
Waning Crescent, 0% visible
METAR KCHS 272056Z 18015KT 10SM FEW045 SCT250 25/14 A3003 RMK AO2 SLP168 CB DSNT NW T02500139 56023
Pressure 30.03 in
Visibility 10.0 miles
Clouds Few 4500 ft
Scattered Clouds 25000 ft
Heat Index 79 °F
Dew Point 58 °F
Humidity 51%
Rainfall 0.00 in
Snow Depth Not available.
7:14 AM 7:36 PM
Waning Crescent, 0% visible
METAR KCHS 272056Z 18015KT 10SM FEW045 SCT250 25/14 A3003 RMK AO2 SLP168 CB DSNT NW T02500139 56023

Get Severe Weather Alerts

Thanks for signing up!

Be on the lookout for a verification email in your inbox.

You'll start receiving the daily forecast at 8 AM.

×

10-Day Weather Forecast

Almanac

Astronomy

Mar. 27, 2017 Rise Set
Actual Time
Civil Twilight
Nautical Twilight
Astronomical Twilight
Moon
Length of Visible Light
Length of Day
Tomorrow will be .
, % of the Moon is Illuminated

Today's Extremes

State Highs State Lows

Community

WunderPhotos

Upload Photos

1,962,540 photos uploaded!

WunderBlog® & News

Nearby

Air Quality

  Air Quality AQ Index Pollutant
Not available.

Snow Depth

Station Depth Elevation

Earthquake Activity

City Distance Mag. Time & Date
Minimum magnitude displayed is 2.5.

Earthquake Activity

City Distance Mag. Time & Date
Minimum magnitude displayed is 2.5.

Coastal Water Temperatures

Place Temperature

Stations

Nearby Weather Stations

Station Location Temp. Windchill Dew Point Humidity Wind Precip. Elev Updated Type
                   

Watches & Warnings

There are currently no watches in effect.